Time;durP1;ratioP1;P1;durP2;ratioP2;P2;SDS_P1;SDS_P2;PMS_P1;PMS_P2;Temp;Humidity;BMP_temperature;BMP_pressure;BME280_temperature;BME280_humidity;BME280_pressure;Samples;Min_cycle;Max_cycle;Signal;HPM_P1;HPM_P2
2022/08/22 00:04:00;;;;;;;7.68;4.43;;;;;;;14.84;100.00;99115.44;8430154;28;20047;-73
2022/08/22 00:08:06;;;;;;;10.82;4.00;;;;;;;14.85;100.00;99123.25;8424654;28;20048;-73
2022/08/22 00:12:41;;;;;;;9.45;4.45;;;;;;;14.88;100.00;99129.94;8429341;28;20083;-74
2022/08/22 00:16:56;;;;;;;5.85;4.10;;;;;;;14.87;100.00;99131.06;8429010;28;20046;-73
2022/08/22 00:21:02;;;;;;;7.43;4.53;;;;;;;14.85;100.00;99127.91;8427755;28;20101;-72
2022/08/22 00:25:12;;;;;;;7.93;4.30;;;;;;;14.90;100.00;99124.97;8428278;28;20061;-72
2022/08/22 00:29:18;;;;;;;8.00;4.40;;;;;;;14.89;100.00;99128.81;8429883;28;20457;-73
2022/08/22 00:33:46;;;;;;;5.13;4.07;;;;;;;14.89;100.00;99139.69;8410773;28;20036;-72
2022/08/22 00:38:01;;;;;;;5.35;4.00;;;;;;;14.89;100.00;99128.81;8392160;28;20052;-73
2022/08/22 00:42:08;;;;;;;10.60;4.10;;;;;;;14.85;100.00;99122.47;8395626;28;20495;-73
2022/08/22 00:46:21;;;;;;;4.80;3.53;;;;;;;14.88;100.00;99110.91;8428542;28;20055;-72
2022/08/22 00:50:32;;;;;;;5.85;3.70;;;;;;;14.83;100.00;99094.81;8427188;28;20040;-74
2022/08/22 00:54:51;;;;;;;5.15;3.50;;;;;;;14.84;100.00;99099.13;8428501;28;20484;-74
2022/08/22 00:59:05;;;;;;;;;;;;;;;14.86;100.00;99099.59;8425135;28;20032;-72
2022/08/22 01:03:18;;;;;;;5.00;3.67;;;;;;;14.84;100.00;99099.13;8426579;28;19920;-73
2022/08/22 01:07:33;;;;;;;5.43;4.10;;;;;;;14.78;100.00;99091.19;8427734;28;20032;-73
2022/08/22 01:12:01;;;;;;;11.45;4.88;;;;;;;14.84;100.00;99093.69;8427598;28;20050;-73
2022/08/22 01:16:09;;;;;;;10.05;4.57;;;;;;;14.86;100.00;99094.16;8426502;28;20032;-74
2022/08/22 01:20:28;;;;;;;5.43;3.90;;;;;;;14.86;100.00;99096.88;8427331;28;20040;-73
2022/08/22 01:25:17;;;;;;;5.20;4.18;;;;;;;14.84;100.00;99104.56;8427466;28;20496;-73
2022/08/22 01:29:30;;;;;;;5.95;4.00;;;;;;;14.85;100.00;99117.03;8315287;28;20098;-73
2022/08/22 01:33:40;;;;;;;6.15;4.30;;;;;;;14.88;100.00;99116.34;8323688;28;20628;-73
2022/08/22 01:38:05;;;;;;;4.82;4.07;;;;;;;14.88;100.00;99116.34;8314105;28;20435;-74
2022/08/22 01:42:25;;;;;;;8.43;5.10;;;;;;;14.87;100.00;99109.31;8303891;28;20056;-74
2022/08/22 01:46:57;;;;;;;6.35;4.65;;;;;;;14.91;100.00;99096.66;8297628;28;20053;-74
2022/08/22 01:51:39;;;;;;;6.43;4.35;;;;;;;14.91;100.00;99088.50;8310836;28;20053;-74
2022/08/22 01:55:45;;;;;;;11.88;4.93;;;;;;;14.90;100.00;99092.34;8225982;28;20114;-74
2022/08/22 01:59:51;;;;;;;7.75;4.80;;;;;;;14.86;100.00;99096.88;8225853;28;20419;-74
2022/08/22 02:04:25;;;;;;;5.50;4.60;;;;;;;14.83;100.00;99097.53;8247727;28;20107;-74
2022/08/22 02:08:46;;;;;;;9.55;5.20;;;;;;;14.84;100.00;99083.59;8324556;28;20042;-73
2022/08/22 02:13:35;;;;;;;10.02;4.82;;;;;;;14.84;100.00;99082.81;8295172;28;20068;-73
2022/08/22 02:17:49;;;;;;;7.43;4.70;;;;;;;14.86;100.00;99102.31;8200141;29;20059;-73
2022/08/22 02:22:18;;;;;;;8.07;4.93;;;;;;;14.85;100.00;99089.84;8199865;29;20061;-74
2022/08/22 02:26:23;;;;;;;7.13;5.10;;;;;;;14.79;100.00;99086.53;8199994;29;20054;-73
2022/08/22 02:30:50;;;;;;;7.47;4.75;;;;;;;14.79;100.00;99092.78;8225860;28;20053;-73
2022/08/22 02:35:19;;;;;;;9.30;4.47;;;;;;;14.78;100.00;99099.34;8312562;28;20057;-72
2022/08/22 02:39:28;;;;;;;5.13;4.23;;;;;;;14.77;100.00;99095.03;8328585;28;20561;-74
2022/08/22 02:43:41;;;;;;;10.30;4.55;;;;;;;14.74;100.00;99093.00;8263278;28;20661;-73
2022/08/22 02:47:50;;;;;;;6.35;4.05;;;;;;;14.71;100.00;99096.38;8263683;28;20054;-73
2022/08/22 02:52:09;;;;;;;7.18;3.70;;;;;;;14.71;100.00;99112.69;8277689;28;20052;-74
2022/08/22 02:56:26;;;;;;;10.40;3.58;;;;;;;14.70;100.00;99100.22;8371616;28;20046;-74
2022/08/22 03:00:30;;;;;;;6.53;3.38;;;;;;;14.69;100.00;99104.09;8378825;28;20036;-74
2022/08/22 03:04:31;;;;;;;3.35;3.05;;;;;;;14.66;100.00;99096.56;8375342;28;20076;-72
2022/08/22 03:08:39;;;;;;;4.50;3.15;;;;;;;14.67;100.00;99090.03;8393617;28;20059;-74
2022/08/22 03:12:55;;;;;;;4.30;3.10;;;;;;;14.68;100.00;99105.19;8402856;28;20055;-73
2022/08/22 03:17:07;;;;;;;6.10;3.13;;;;;;;14.71;100.00;99099.09;8431463;28;20113;-73
2022/08/22 03:21:32;;;;;;;3.75;3.05;;;;;;;14.68;100.00;99102.47;8430864;28;20097;-74
2022/08/22 03:25:55;;;;;;;4.95;3.00;;;;;;;14.63;100.00;99110.06;8430498;28;20044;-72
2022/08/22 03:30:01;;;;;;;5.00;3.00;;;;;;;14.63;100.00;99110.84;8426092;28;20412;-73
2022/08/22 03:34:25;;;;;;;5.03;3.22;;;;;;;14.66;100.00;99110.16;8430151;28;20044;-72
2022/08/22 03:38:32;;;;;;;4.90;3.17;;;;;;;14.56;100.00;99110.59;8416776;28;20044;-73
2022/08/22 03:43:10;;;;;;;4.45;3.22;;;;;;;14.59;100.00;99120.00;8429946;28;20052;-73
2022/08/22 03:47:46;;;;;;;5.20;3.10;;;;;;;14.57;100.00;99123.06;8430653;28;20043;-72
2022/08/22 03:52:20;;;;;;;3.75;3.13;;;;;;;14.57;100.00;99123.06;8303225;28;20085;-73
2022/08/22 03:57:27;;;;;;;4.07;3.55;;;;;;;14.61;100.00;99118.53;8293898;28;20058;-73
2022/08/22 04:01:32;;;;;;;7.07;3.17;;;;;;;14.53;100.00;99116.72;8215461;28;20410;-73
2022/08/22 04:05:42;;;;;;;6.68;3.25;;;;;;;14.53;100.00;99114.00;8237638;28;20530;-73
2022/08/22 04:10:36;;;;;;;7.05;3.05;;;;;;;14.53;100.00;99111.28;8231937;28;20077;-73
2022/08/22 04:15:19;;;;;;;3.63;3.10;;;;;;;14.51;100.00;99118.94;8102767;29;20067;-73
2022/08/22 04:19:22;;;;;;;5.55;3.17;;;;;;;14.54;100.00;99122.94;8009615;29;20560;-74
2022/08/22 04:23:38;;;;;;;6.22;2.90;;;;;;;14.52;100.00;99131.41;8010528;29;20050;-72
2022/08/22 04:27:50;;;;;;;7.55;2.90;;;;;;;14.47;100.00;99123.47;8027036;29;20053;-73
2022/08/22 04:32:16;;;;;;;6.20;3.25;;;;;;;14.50;100.00;99128.22;8039249;29;20045;-74
2022/08/22 04:36:28;;;;;;;6.22;3.10;;;;;;;14.49;100.00;99121.19;8070410;29;20053;-73
2022/08/22 04:40:34;;;;;;;4.57;2.97;;;;;;;14.49;100.00;99121.19;8133486;29;20056;-72
2022/08/22 04:44:42;;;;;;;6.95;2.97;;;;;;;14.49;100.00;99126.63;8127677;29;20142;-73
2022/08/22 04:49:06;;;;;;;4.33;3.13;;;;;;;14.51;100.00;99137.97;8279973;28;20053;-73
2022/08/22 04:53:12;;;;;;;4.38;2.80;;;;;;;14.50;100.00;99130.16;8321667;28;20045;-73
2022/08/22 04:57:56;;;;;;;3.28;2.60;;;;;;;14.53;100.00;99122.13;8416965;28;20044;-74
2022/08/22 05:02:04;;;;;;;7.57;2.70;;;;;;;14.54;100.00;99134.56;8354147;28;20053;-73
2022/08/22 05:06:09;;;;;;;2.95;2.30;;;;;;;14.54;100.00;99129.13;8325250;28;20052;-73
2022/08/22 05:10:37;;;;;;;4.65;2.50;;;;;;;14.52;100.00;99141.50;8354963;28;20044;-73
2022/08/22 05:14:55;;;;;;;4.25;2.47;;;;;;;14.51;100.00;99140.69;8252672;28;20223;-74
2022/08/22 05:19:01;;;;;;;3.63;2.60;;;;;;;14.55;100.00;99140.81;8258513;28;20425;-73
2022/08/22 05:23:11;;;;;;;4.40;2.63;;;;;;;14.58;100.00;99146.38;8239434;28;20113;-73
2022/08/22 05:27:27;;;;;;;6.90;2.60;;;;;;;14.59;100.00;99147.97;8243151;28;20061;-73
2022/08/22 05:31:35;;;;;;;6.10;2.88;;;;;;;14.60;100.00;99155.00;8255985;28;20057;-73
2022/08/22 05:35:42;;;;;;;3.75;2.70;;;;;;;14.62;100.00;99150.03;8241379;28;20057;-73
2022/08/22 05:39:48;;;;;;;3.35;2.55;;;;;;;14.66;100.00;99153.66;8319314;28;20053;-73
2022/08/22 05:43:50;;;;;;;3.65;2.85;;;;;;;14.68;100.00;99151.41;8369611;28;20068;-72
2022/08/22 05:47:57;;;;;;;5.15;2.88;;;;;;;14.68;100.00;99150.63;8327550;28;20049;-73
2022/08/22 05:52:17;;;;;;;6.45;2.90;;;;;;;14.71;100.00;99150.72;8393732;28;20483;-73
2022/08/22 05:56:38;;;;;;;6.45;2.40;;;;;;;14.73;100.00;99148.47;8426645;28;20052;-73
2022/08/22 06:00:41;;;;;;;4.88;2.30;;;;;;;14.79;100.00;99151.78;8392017;28;20060;-75
2022/08/22 06:04:48;;;;;;;2.40;2.03;;;;;;;14.78;100.00;99164.59;8423256;28;20053;-73
2022/08/22 06:09:15;;;;;;;3.20;1.92;;;;;;;14.76;100.00;99166.84;8437301;28;20093;-73
2022/08/22 06:13:31;;;;;;;2.58;1.85;;;;;;;14.78;100.00;99167.31;8407379;28;20048;-73
2022/08/22 06:17:35;;;;;;;1.73;1.58;;;;;;;14.80;100.00;99172.41;8425114;28;20094;-73
2022/08/22 06:21:36;;;;;;;4.13;1.88;;;;;;;14.86;100.00;99178.44;8412120;28;20055;-73
2022/08/22 06:25:39;;;;;;;3.03;2.15;;;;;;;14.86;100.00;99178.44;8426189;28;20074;-73
2022/08/22 06:29:45;;;;;;;3.58;1.85;;;;;;;14.84;100.00;99170.59;8426841;28;20499;-74
2022/08/22 06:34:21;;;;;;;2.47;1.85;;;;;;;14.84;100.00;99169.81;8426151;28;20537;-73
2022/08/22 06:38:55;;;;;;;2.10;1.77;;;;;;;14.91;100.00;99180.94;8288013;28;20054;-73
2022/08/22 06:42:56;;;;;;;3.40;1.90;;;;;;;14.96;100.00;99178.00;8264776;28;20148;-73
2022/08/22 06:46:59;;;;;;;3.35;1.90;;;;;;;14.96;100.00;99178.00;8289756;28;20065;-73
2022/08/22 06:51:00;;;;;;;2.40;2.00;;;;;;;14.96;100.00;99184.25;8289618;28;20053;-74
2022/08/22 06:55:10;;;;;;;2.20;2.00;;;;;;;15.01;100.00;99180.53;8264535;28;20113;-74
2022/08/22 06:59:14;;;;;;;3.45;2.00;;;;;;;15.04;100.00;99169.75;8247856;28;20502;-73
2022/08/22 07:03:23;;;;;;;2.58;1.75;;;;;;;15.03;100.00;99175.53;8253090;28;20062;-73
2022/08/22 07:07:28;;;;;;;2.58;2.00;;;;;;;14.98;100.00;99175.72;8258191;28;20058;-73
2022/08/22 07:11:36;;;;;;;2.13;1.67;;;;;;;14.97;100.00;99185.03;8224025;28;20538;-74
2022/08/22 07:15:40;;;;;;;3.03;2.05;;;;;;;15.00;100.00;99184.38;8367843;28;20049;-74
2022/08/22 07:19:46;;;;;;;2.65;2.00;;;;;;;15.03;100.00;99183.69;8361464;28;20106;-73
2022/08/22 07:23:47;;;;;;;2.72;1.90;;;;;;;15.06;100.00;99188.47;8394269;28;20604;-73
2022/08/22 07:28:15;;;;;;;2.30;1.90;;;;;;;15.08;100.00;99191.63;8388467;28;20044;-74
2022/08/22 07:32:27;;;;;;;2.10;1.90;;;;;;;15.11;100.00;99196.41;8431107;28;20052;-74
2022/08/22 07:36:43;;;;;;;2.47;2.20;;;;;;;15.12;100.00;99192.56;8426278;28;20052;-74
2022/08/22 07:40:44;;;;;;;3.58;2.55;;;;;;;15.11;100.00;99201.84;8396974;28;20044;-72
2022/08/22 07:45:12;;;;;;;2.83;2.40;;;;;;;15.13;100.00;99194.13;8428349;28;20117;-73
2022/08/22 07:49:21;;;;;;;2.97;2.60;;;;;;;15.10;100.00;99194.81;8420702;28;20052;-74
2022/08/22 07:54:00;;;;;;;2.80;2.40;;;;;;;15.07;100.00;99195.47;8424660;28;20064;-73
2022/08/22 07:58:02;;;;;;;;;;;;;;;15.11;100.00;99197.22;8409395;28;20048;-74
2022/08/22 08:02:07;;;;;;;3.83;2.85;;;;;;;15.17;100.00;99205.94;8408421;28;19920;-74
2022/08/22 08:06:08;;;;;;;4.25;3.00;;;;;;;15.22;100.00;99208.47;8419056;28;20051;-73
2022/08/22 08:10:13;;;;;;;3.35;2.90;;;;;;;15.25;100.00;99202.31;8428280;28;20051;-73
2022/08/22 08:14:15;;;;;;;3.40;3.05;;;;;;;15.26;100.00;99187.59;8427566;28;20055;-73
2022/08/22 08:18:22;;;;;;;6.10;3.47;;;;;;;15.29;100.00;99208.69;8427242;28;20094;-73
2022/08/22 08:22:24;;;;;;;4.25;3.25;;;;;;;15.27;100.00;99200.06;8442937;28;20058;-73
2022/08/22 08:28:32;;;;;;;6.45;3.60;;;;;;;15.34;100.00;99200.28;8405866;28;20044;-73
2022/08/22 08:31:16;;;;;;;6.32;3.72;;;;;;;15.39;100.00;99208.25;8428560;28;20061;-72
2022/08/22 08:35:27;;;;;;;6.88;3.92;;;;;;;15.41;100.00;99200.53;8415908;28;20044;-73
2022/08/22 08:39:49;;;;;;;7.65;4.07;;;;;;;15.40;100.00;99204.41;8424914;28;20044;-73
2022/08/22 08:44:10;;;;;;;7.22;4.30;;;;;;;15.45;100.00;99200.66;8416304;28;20473;-72
2022/08/22 08:48:30;;;;;;;6.43;4.13;;;;;;;15.52;100.00;99190.84;8428759;28;20508;-73
2022/08/22 08:53:08;;;;;;;7.63;4.68;;;;;;;15.59;100.00;99196.53;8398015;28;20052;-72
2022/08/22 08:57:28;;;;;;;6.97;4.38;;;;;;;15.68;100.00;99192.88;8413905;28;20076;-72
2022/08/22 09:01:38;;;;;;;10.25;5.25;;;;;;;15.70;100.00;99190.63;8418283;28;20047;-72
2022/08/22 09:06:09;;;;;;;9.88;5.78;;;;;;;15.70;100.00;99190.63;8427915;28;20081;-72
2022/08/22 09:10:48;;;;;;;8.70;6.07;;;;;;;15.78;100.00;99192.44;8427667;28;20094;-72
2022/08/22 09:15:30;;;;;;;14.35;6.70;;;;;;;15.84;100.00;99185.63;8257033;28;20111;-73
2022/08/22 09:19:50;;;;;;;8.82;6.32;;;;;;;15.80;100.00;99190.19;8193663;28;20046;-72
2022/08/22 09:24:14;;;;;;;14.20;6.82;;;;;;;15.83;100.00;99181.31;8194616;28;20138;-72
2022/08/22 09:28:26;;;;;;;12.18;7.72;;;;;;;15.90;100.00;99189.72;8193806;29;20051;-72
2022/08/22 09:32:46;;;;;;;15.73;8.48;;;;;;;15.96;100.00;99183.69;8194377;29;20660;-73
2022/08/22 09:37:03;;;;;;;11.55;8.27;;;;;;;15.99;100.00;99188.44;8149976;29;20079;-73
2022/08/22 09:41:25;;;;;;;13.27;8.27;;;;;;;16.12;100.00;99175.63;8157158;29;20095;-72
2022/08/22 09:45:39;;;;;;;12.20;8.18;;;;;;;16.15;100.00;99180.38;8193093;28;20483;-72
2022/08/22 09:50:11;;;;;;;12.70;7.82;;;;;;;16.21;100.00;99184.44;8296303;28;20079;-72
2022/08/22 09:54:38;;;;;;;14.95;8.32;;;;;;;16.22;100.00;99186.03;8208910;28;20051;-72
2022/08/22 09:59:09;;;;;;;19.30;8.85;;;;;;;16.29;100.00;99175.34;8225358;28;20047;-72
2022/08/22 10:03:26;;;;;;;15.90;9.18;;;;;;;16.39;100.00;99169.41;8143878;29;20056;-72
2022/08/22 10:08:11;;;;;;;15.20;9.75;;;;;;;16.37;100.00;99171.69;8176935;28;20063;-72
2022/08/22 10:12:18;;;;;;;22.83;10.25;;;;;;;16.37;100.00;99171.69;8161150;29;20074;-72
2022/08/22 10:16:27;;;;;;;17.27;9.75;;;;;;;16.41;100.00;99178.03;8147975;29;20056;-72
2022/08/22 10:20:41;;;;;;;19.95;10.73;;;;;;;16.47;100.00;99171.22;8143896;29;20082;-72
2022/08/22 10:24:51;;;;;;;16.60;11.35;;;;;;;16.52;100.00;99175.63;8175380;28;20090;-72
2022/08/22 10:29:23;;;;;;;18.17;11.48;;;;;;;16.62;100.00;99177.88;8167106;28;20048;-72
2022/08/22 10:33:53;;;;;;;26.40;12.18;;;;;;;16.56;100.00;99183.88;8136240;29;20051;-73
2022/08/22 10:38:20;;;;;;;18.95;13.05;;;;;;;16.50;100.00;99190.75;8146483;28;20486;-72
2022/08/22 10:42:29;;;;;;;18.38;12.63;;;;;;;16.53;100.00;99190.03;8254497;28;20101;-73
2022/08/22 10:46:36;;;;;;;19.13;13.27;;;;;;;16.53;100.00;99184.59;8274734;28;20081;-72
2022/08/22 10:50:42;;;;;;;18.77;13.73;;;;;;;16.56;100.00;99189.34;8412118;28;20048;-72
2022/08/22 10:54:50;;;;;;;20.55;13.43;;;;;;;16.64;100.00;99185.72;8447357;28;20043;-72
2022/08/22 10:59:04;;;;;;;22.30;14.98;;;;;;;16.69;100.00;99188.19;8430245;28;20845;-73
2022/08/22 11:03:44;;;;;;;21.90;14.30;;;;;;;16.70;100.00;99184.34;8396662;28;20067;-73
2022/08/22 11:08:00;;;;;;;19.90;13.27;;;;;;;16.72;100.00;99187.50;8290196;28;20049;-72
2022/08/22 11:12:11;;;;;;;18.95;13.50;;;;;;;16.74;100.00;99179.78;8272166;28;20661;-73
2022/08/22 11:16:16;;;;;;;19.30;13.32;;;;;;;16.77;100.00;99179.06;8294932;28;20130;-73
2022/08/22 11:20:39;;;;;;;17.60;12.77;;;;;;;16.74;100.00;99186.03;8278474;28;20053;-71
2022/08/22 11:24:46;;;;;;;19.33;13.80;;;;;;;16.66;100.00;99194.34;8294777;28;20048;-73
2022/08/22 11:29:07;;;;;;;19.40;13.60;;;;;;;16.65;100.00;99192.78;8293421;28;20057;-72
2022/08/22 11:33:46;;;;;;;20.63;13.43;;;;;;;16.61;100.00;99197.31;8290285;28;20061;-72
2022/08/22 11:38:03;;;;;;;21.27;13.07;;;;;;;16.62;100.00;99198.91;8229005;28;20055;-73
2022/08/22 11:42:12;;;;;;;20.48;13.60;;;;;;;16.66;100.00;99194.34;8256641;28;20143;-72
2022/08/22 11:46:30;;;;;;;17.85;13.82;;;;;;;16.66;100.00;99202.50;8342872;28;20140;-72
2022/08/22 11:50:41;;;;;;;20.58;14.50;;;;;;;16.74;100.00;99207.03;8358852;28;20052;-72
2022/08/22 11:54:48;;;;;;;22.60;15.23;;;;;;;16.86;100.00;99193.38;8342427;28;20044;-72
2022/08/22 11:59:02;;;;;;;20.08;15.05;;;;;;;16.93;100.00;99199.00;8358227;28;20053;-72
2022/08/22 12:03:21;;;;;;;25.42;16.25;;;;;;;17.03;100.00;99193.03;8358448;28;20065;-73
2022/08/22 12:07:29;;;;;;;20.40;15.10;;;;;;;17.08;100.00;99200.97;8386486;28;20048;-73
2022/08/22 12:11:57;;;;;;;20.88;15.30;;;;;;;17.09;100.00;99202.56;8427101;28;20040;-72
2022/08/22 12:16:36;;;;;;;22.30;16.17;;;;;;;17.09;100.00;99202.56;8361026;28;20048;-73
2022/08/22 12:21:02;;;;;;;24.92;15.82;;;;;;;17.16;100.00;99197.28;8196227;28;20460;-73
2022/08/22 12:25:18;;;;;;;24.88;16.42;;;;;;;17.20;100.00;99187.25;8191497;28;20134;-73
2022/08/22 12:29:22;;;;;;;21.48;15.98;;;;;;;17.27;100.00;99187.47;8200324;28;20050;-72
2022/08/22 12:33:26;;;;;;;21.63;16.85;;;;;;;17.28;100.00;99194.50;8195721;28;20061;-73
2022/08/22 12:37:35;;;;;;;21.58;16.77;;;;;;;17.29;100.00;99196.06;8205859;28;20059;-73
2022/08/22 12:42:00;;;;;;;26.27;19.17;;;;;;;17.26;100.00;99188.59;8197615;28;20497;-73
2022/08/22 12:46:22;;;;;;;27.35;19.25;;;;;;;17.29;100.00;99185.16;8182150;29;20467;-73
2022/08/22 12:50:30;;;;;;;28.90;20.35;;;;;;;17.32;100.00;99189.13;8198466;28;20059;-74
2022/08/22 12:55:09;;;;;;;28.92;21.00;;;;;;;17.36;100.00;99183.75;8285112;28;20038;-73
2022/08/22 12:59:25;;;;;;;31.52;20.77;;;;;;;17.28;100.00;99178.13;8426520;28;20071;-72
2022/08/22 13:03:55;;;;;;;30.23;20.35;;;;;;;17.38;100.00;99176.00;8428467;28;20054;-73
2022/08/22 13:07:57;;;;;;;;;;;;;;;17.37;100.00;99174.41;8415219;28;20108;-73
2022/08/22 13:12:20;;;;;;;25.67;17.50;;;;;;;17.37;100.00;99174.41;8416050;28;19920;-73
2022/08/22 13:16:22;;;;;;;31.75;19.45;;;;;;;17.35;100.00;99182.16;8394259;28;20080;-73
2022/08/22 13:20:28;;;;;;;28.95;18.52;;;;;;;17.35;100.00;99188.41;8418728;28;20044;-72
2022/08/22 13:24:44;;;;;;;33.08;19.17;;;;;;;17.25;100.00;99189.72;8427072;28;20044;-73
2022/08/22 13:28:52;;;;;;;34.25;20.33;;;;;;;17.25;100.00;99184.28;8424985;28;20044;-73
2022/08/22 13:33:02;;;;;;;32.83;19.48;;;;;;;17.31;100.00;99182.88;8377053;28;20067;-72
2022/08/22 13:37:04;;;;;;;37.03;24.67;;;;;;;17.28;100.00;99183.59;8389173;28;20503;-72
2022/08/22 13:41:07;;;;;;;37.80;24.67;;;;;;;17.27;100.00;99187.47;8372190;28;20127;-72
2022/08/22 13:45:25;;;;;;;36.15;26.65;;;;;;;17.23;100.00;99192.03;8372919;28;20063;-73
2022/08/22 13:49:49;;;;;;;31.58;20.55;;;;;;;17.29;100.00;99190.59;8388328;28;20121;-73
2022/08/22 13:54:19;;;;;;;28.08;19.30;;;;;;;17.25;100.00;99192.47;8376607;28;20143;-74
2022/08/22 13:58:49;;;;;;;34.35;20.58;;;;;;;17.40;100.00;99190.88;8320949;28;20060;-73
2022/08/22 14:03:00;;;;;;;31.45;19.58;;;;;;;17.55;100.00;99197.50;8301317;28;20046;-73
2022/08/22 14:07:02;;;;;;;27.27;18.90;;;;;;;17.67;100.00;99183.78;8322837;28;20049;-73
2022/08/22 14:11:11;;;;;;;32.42;20.25;;;;;;;17.75;100.00;99182.81;8340166;28;20052;-74
2022/08/22 14:15:27;;;;;;;33.38;19.75;;;;;;;17.71;100.00;99184.69;8315303;28;20162;-74
2022/08/22 14:19:43;;;;;;;27.17;19.73;;;;;;;17.64;100.00;99184.50;8354299;28;20076;-73
2022/08/22 14:23:45;;;;;;;29.05;19.20;;;;;;;17.54;100.00;99185.00;8355414;28;20049;-74
2022/08/22 14:27:51;;;;;;;36.17;20.25;;;;;;;17.53;100.00;99183.41;8334516;28;20072;-74
2022/08/22 14:32:21;;;;;;;33.45;19.45;;;;;;;17.51;100.00;99180.22;8343434;28;20136;-73
2022/08/22 14:36:41;;;;;;;31.92;20.05;;;;;;;17.51;100.00;99174.75;8289131;28;20056;-74
2022/08/22 14:40:46;;;;;;;41.05;20.75;;;;;;;17.49;100.00;99177.06;8253049;28;20050;-74
2022/08/22 14:45:23;;;;;;;32.78;19.42;;;;;;;17.42;100.00;99176.88;8268911;28;20469;-74
2022/08/22 14:49:28;;;;;;;31.17;20.52;;;;;;;17.43;100.00;99173.03;8278461;28;20052;-74
2022/08/22 14:53:32;;;;;;;36.72;19.92;;;;;;;17.46;100.00;99180.50;8256270;28;20045;-74
2022/08/22 14:57:35;;;;;;;33.33;20.30;;;;;;;17.48;100.00;99180.94;8281379;28;20050;-74
2022/08/22 15:01:56;;;;;;;40.03;21.42;;;;;;;17.38;100.00;99184.19;8272552;28;20172;-74
2022/08/22 15:06:07;;;;;;;36.28;21.50;;;;;;;17.30;100.00;99186.75;8267541;28;20072;-74
2022/08/22 15:10:32;;;;;;;29.63;20.33;;;;;;;17.33;100.00;99179.00;8288375;28;20132;-73
2022/08/22 15:14:42;;;;;;;33.42;23.10;;;;;;;17.39;100.00;99174.88;8391336;28;20040;-74
2022/08/22 15:18:44;;;;;;;36.22;21.27;;;;;;;17.45;100.00;99170.75;8396739;28;20091;-74
2022/08/22 15:22:46;;;;;;;42.85;22.35;;;;;;;17.48;100.00;99175.47;8409569;28;20507;-74
2022/08/22 15:26:51;;;;;;;38.55;21.83;;;;;;;17.44;100.00;99164.47;8369208;28;20489;-74
2022/08/22 15:31:05;;;;;;;38.65;22.45;;;;;;;17.44;100.00;99169.16;8393968;28;20573;-74
2022/08/22 15:35:15;;;;;;;41.60;22.38;;;;;;;17.41;100.00;99164.38;8396481;28;20083;-73
2022/08/22 15:39:35;;;;;;;44.58;24.50;;;;;;;17.39;100.00;99161.22;8428959;28;20092;-73
2022/08/22 15:43:44;;;;;;;37.88;22.48;;;;;;;17.37;100.00;99158.84;8424871;28;20057;-73
2022/08/22 15:47:51;;;;;;;39.17;23.52;;;;;;;17.37;100.00;99163.50;8420686;28;20048;-74
2022/08/22 15:51:57;;;;;;;45.67;24.05;;;;;;;17.37;100.00;99158.03;8422267;28;20454;-73
2022/08/22 15:56:01;;;;;;;43.25;24.90;;;;;;;17.38;100.00;99167.81;8429186;28;20044;-73
2022/08/22 16:00:07;;;;;;;38.20;23.13;;;;;;;17.36;100.00;99167.38;8429268;28;20048;-73
2022/08/22 16:04:19;;;;;;;41.50;24.55;;;;;;;17.34;100.00;99158.75;8426829;28;20041;-73
2022/08/22 16:08:28;;;;;;;46.58;25.88;;;;;;;17.34;100.00;99164.22;8398009;28;20044;-73
2022/08/22 16:12:34;;;;;;;41.70;23.95;;;;;;;17.30;100.00;99162.19;8420216;28;20544;-74
2022/08/22 16:16:40;;;;;;;48.97;24.08;;;;;;;17.29;100.00;99168.78;8422179;28;20143;-74
2022/08/22 16:20:49;;;;;;;45.83;25.45;;;;;;;17.33;100.00;99173.53;8425882;28;20408;-73
2022/08/22 16:24:59;;;;;;;45.85;25.08;;;;;;;17.31;100.00;99171.97;8407155;28;20048;-74
2022/08/22 16:29:09;;;;;;;49.75;24.25;;;;;;;17.31;100.00;99171.97;8424781;28;20587;-73
2022/08/22 16:33:11;;;;;;;49.45;24.42;;;;;;;17.31;100.00;99182.88;8427046;28;20051;-74
2022/08/22 16:37:18;;;;;;;45.80;25.75;;;;;;;17.32;100.00;99180.94;8419216;28;20054;-72
2022/08/22 16:41:27;;;;;;;38.03;23.50;;;;;;;17.29;100.00;99179.69;8428739;28;20052;-73
2022/08/22 16:50:20;;;;;;;40.90;24.25;;;;;;;17.35;100.00;99173.97;8426207;28;20043;-73
2022/08/22 16:54:45;;;;;;;38.22;23.88;;;;;;;17.33;100.00;99179.00;8427213;28;20051;-73
2022/08/22 16:59:04;;;;;;;44.53;23.95;;;;;;;17.31;100.00;99188.34;8424632;28;20448;-74
2022/08/22 17:03:11;;;;;;;34.70;24.02;;;;;;;17.33;100.00;99184.47;8425523;28;20075;-73
2022/08/22 17:07:52;;;;;;;43.33;24.65;;;;;;;17.31;100.00;99188.34;8426085;28;20491;-73
2022/08/22 17:12:15;;;;;;;44.92;24.25;;;;;;;17.29;100.00;99190.59;8428520;28;20044;-73
2022/08/22 17:16:27;;;;;;;41.05;23.42;;;;;;;17.29;100.00;99190.59;8422405;28;20043;-73
2022/08/22 17:20:51;;;;;;;35.45;23.45;;;;;;;17.29;100.00;99196.06;8425829;28;20484;-73
2022/08/22 17:24:55;;;;;;;48.08;25.55;;;;;;;17.28;100.00;99194.50;8437872;28;20044;-73
2022/08/22 17:29:07;;;;;;;38.58;24.92;;;;;;;17.27;100.00;99198.38;8426289;28;20048;-73
2022/08/22 17:33:35;;;;;;;39.38;23.85;;;;;;;17.28;100.00;99194.50;8398389;28;20503;-73
2022/08/22 17:37:51;;;;;;;44.22;25.23;;;;;;;17.25;100.00;99200.66;8434382;28;20047;-73
2022/08/22 17:42:17;;;;;;;46.83;26.47;;;;;;;17.25;100.00;99200.66;8406753;28;20507;-73
2022/08/22 17:46:46;;;;;;;44.40;25.13;;;;;;;17.24;100.00;99199.06;8423398;28;20052;-74
2022/08/22 17:50:53;;;;;;;37.83;26.42;;;;;;;17.25;100.00;99211.56;8412520;28;20048;-74
2022/08/22 17:55:02;;;;;;;47.47;25.10;;;;;;;17.25;100.00;99211.56;8425315;28;20126;-74
2022/08/22 17:59:09;;;;;;;34.58;24.23;;;;;;;17.25;100.00;99211.56;8404780;28;20040;-73
2022/08/22 18:03:28;;;;;;;39.17;24.83;;;;;;;17.21;100.00;99210.69;8436543;28;20048;-74
2022/08/22 18:07:53;;;;;;;38.83;25.20;;;;;;;17.19;100.00;99212.97;8424610;28;20048;-73
2022/08/22 18:12:04;;;;;;;40.63;24.52;;;;;;;17.20;100.00;99220.00;8425071;28;20091;-74
2022/08/22 18:16:46;;;;;;;33.97;22.52;;;;;;;17.20;100.00;99214.56;8394572;28;20097;-73
2022/08/22 18:21:01;;;;;;;35.35;24.33;;;;;;;17.18;100.00;99222.28;8271414;28;20062;-74
2022/08/22 18:25:31;;;;;;;31.65;23.83;;;;;;;17.16;100.00;99219.13;8237443;28;20054;-73
2022/08/22 18:29:39;;;;;;;37.53;24.02;;;;;;;17.16;100.00;99224.59;8201320;28;20495;-75
2022/08/22 18:34:03;;;;;;;33.20;23.27;;;;;;;17.19;100.00;99228.53;8220725;28;20134;-74
2022/08/22 18:38:21;;;;;;;36.95;22.92;;;;;;;17.19;100.00;99218.41;8128389;29;20052;-74
2022/08/22 18:42:28;;;;;;;32.05;23.83;;;;;;;17.17;100.00;99226.19;8128594;29;20052;-73
2022/08/22 18:46:36;;;;;;;;;;;;;;;17.19;100.00;99221.16;8116353;29;20113;-74
2022/08/22 18:50:37;;;;;;;29.08;22.52;;;;;;;17.17;100.00;99220.72;8115960;29;19923;-74
2022/08/22 18:54:57;;;;;;;30.55;21.70;;;;;;;17.19;100.00;99229.34;8134614;29;20110;-73
2022/08/22 18:59:21;;;;;;;29.25;21.33;;;;;;;17.19;100.00;99223.88;8226462;28;20133;-73
2022/08/22 19:04:13;;;;;;;30.02;20.35;;;;;;;17.20;100.00;99225.47;8228176;28;20054;-74
2022/08/22 19:08:39;;;;;;;23.88;19.52;;;;;;;17.19;100.00;99234.78;8198759;28;20051;-73
2022/08/22 19:13:02;;;;;;;29.85;20.25;;;;;;;17.21;100.00;99226.25;8204036;28;20054;-73
2022/08/22 19:17:15;;;;;;;26.75;20.65;;;;;;;17.20;100.00;99233.66;8293668;28;20049;-73
2022/08/22 19:26:22;;;;;;;25.70;19.33;;;;;;;17.14;100.00;99226.84;8289679;28;20057;-73
2022/08/22 19:30:45;;;;;;;24.75;19.00;;;;;;;17.13;100.00;99219.81;8290233;28;20042;-74
2022/08/22 19:35:14;;;;;;;22.17;18.75;;;;;;;17.15;100.00;99225.72;8282863;28;20066;-74
2022/08/22 19:39:42;;;;;;;21.80;17.85;;;;;;;17.15;100.00;99228.44;8275188;28;20037;-74
2022/08/22 19:43:45;;;;;;;25.25;18.45;;;;;;;17.15;100.00;99228.44;8257713;28;20058;-74
2022/08/22 19:48:07;;;;;;;21.75;18.65;;;;;;;17.15;100.00;99239.38;8235127;28;20090;-73